NCAR-RAP Real-Time Weather Data

Output produced by METARs form (12 August 2020  17:35 UTC)
found at http://weather.rap.ucar.edu/surface/
 
KTUS 121653Z 32007KT 10SM CLR 34/12 A3003 RMK AO2 SLP112 T03440117
KTUS 121553Z 17003KT 10SM CLR 32/13 A3004 RMK AO2 SLP115 T03170133
KTUS 121453Z 24003KT 10SM CLR 29/14 A3002 RMK AO2 SLP112 T02940139 51011
KTUS 121353Z VRB05KT 10SM CLR 28/14 A3002 RMK AO2 SLP112 T02830139
KTUS 121253Z 14006KT 10SM CLR 28/13 A3001 RMK AO2 SLP106 T02830128
KTUS 121153Z 36004KT 10SM CLR 29/12 A2999 RMK AO2 SLP097 T02890117 10306 20289 53002
KTUS 121053Z 20007KT 10SM CLR 29/12 A2999 RMK AO2 SLP096 T02940117
KTUS 120953Z VRB03KT 10SM CLR 29/12 A2998 RMK AO2 SLP093 T02940117
KTUS 120853Z 16006KT 10SM FEW110 31/11 A2998 RMK AO2 SLP094 T03060111 56001
KTUS 120753Z 19006KT 10SM CLR 31/11 A2998 RMK AO2 SLP094 T03060111
KTUS 120653Z 17006KT 10SM CLR 31/12 A2997 RMK AO2 SLP091 T03060117 404110272
KTUS 120553Z 21003KT 10SM CLR 31/12 A2999 RMK AO2 SLP097 T03060122 10383 20306 50008
KTUS 120453Z 36009KT 10SM CLR 31/12 A2999 RMK AO2 SLP099 T03110117
KTUS 120353Z 28011G21KT 10SM CLR 32/12 A2998 RMK AO2 SLP097 T03220122
KTUS 120253Z 28005KT 10SM SCT110 33/12 A2996 RMK AO2 LTG DSNT SW SLP090 T03330117 50021
KTUS 120153Z 20013G23KT 10SM CLR 33/13 A2996 RMK AO2 WSHFT 0042 LTG DSNT E AND S SLP091 T03330128
KTUS 120102Z 20017G25KT 10SM FEW080 FEW100 35/12 A2993 RMK AO2 WSHFT 0042 LTG DSNT E AND S T03500122
KTUS 120053Z 22010KT 10SM FEW055 SCT075 SCT090 36/11 A2992 RMK AO2 LTG DSNT NE-S SLP075 T03610111
KTUS 112353Z 31006KT 10SM CLR 38/07 A2989 RMK AO2 LTG DSNT NE-SE SLP066 T03830072 10411 20356 56019
KTUS 112253Z 30010KT 10SM CLR 39/08 A2990 RMK AO2 LTG DSNT SE SLP065 T03940078
KTUS 112153Z 29010G16KT 10SM CLR 40/09 A2992 RMK AO2 SLP071 T04000094
KTUS 112053Z VRB05KT 10SM CLR 39/10 A2996 RMK AO2 SLP084 T03940100 56021
KTUS 111953Z 34012G15KT 10SM CLR 39/10 A2997 RMK AO2 SLP090 T03890100
KTUS 111853Z 36003KT 10SM CLR 37/12 A3000 RMK AO2 SLP099 T03720117
KTUS 111753Z 32006KT 10SM CLR 36/11 A3002 RMK AO2 SLP107 T03610111 10361 20272 58005
KTUS 111653Z COR 34008KT 10SM CLR 34/14 A3003 RMK AO2 SLP110 T03440139
KTUS 111558Z 00000KT 10SM CLR 32/15 A3004 RMK AO2 T03220150
KTUS 111553Z 10SM CLR 32/16 A3004 RMK AO2 SLP114 T03220156
KTUS 111453Z VRB03KT 10SM CLR 30/18 A3003 RMK AO2 SLP112 T03000178 51012
KTUS 111353Z 00000KT 10SM CLR 29/14 A3002 RMK AO2 SLP109 T02890144
KTUS 111253Z 20005KT 10SM CLR 28/14 A3001 RMK AO2 SLP104 T02830144
KTUS 111153Z 00000KT 10SM CLR 27/12 A3000 RMK AO2 SLP099 T02720122 10328 20272 53007
KTUS 111053Z 16004KT 10SM CLR 29/12 A2999 RMK AO2 SLP095 T02890122
KTUS 110953Z 20004KT 10SM CLR 29/11 A2998 RMK AO2 SLP093 T02890111
KTUS 110853Z 19003KT 10SM CLR 31/09 A2997 RMK AO2 SLP090 T03060089 51004
KTUS 110753Z 27004KT 10SM CLR 31/05 A2997 RMK AO2 SLP089 T03110050
KTUS 110653Z 27006KT 10SM CLR 32/03 A2998 RMK AO2 SLP090 T03220028 404220250
KTUS 110553Z 26007KT 10SM CLR 33/03 A2996 RMK AO2 SLP085 T03280028 10411 20328 52013
KTUS 110453Z 34006KT 10SM CLR 35/02 A2995 RMK AO2 SLP080 T03500022
KTUS 110353Z 34006KT 10SM CLR 36/02 A2994 RMK AO2 SLP078 T03560022
KTUS 110253Z 34006KT 10SM CLR 37/02 A2992 RMK AO2 SLP073 T03720022 53000
KTUS 110153Z 33007KT 10SM CLR 38/02 A2991 RMK AO2 SLP070 T03830017
KTUS 110053Z 32007KT 10SM CLR 41/02 A2991 RMK AO2 SLP070 T04060017
KTUS 102353Z 30006KT 10SM CLR 41/01 A2992 RMK AO2 SLP074 T04060011 10422 20383 56018
KTUS 102253Z 27010G18KT 10SM CLR 41/01 A2993 RMK AO2 SLP076 T04110011
KTUS 102153Z 02009G17KT 350V060 10SM CLR 42/01 A2995 RMK AO2 SLP082 T04170011
KTUS 102053Z 29008KT 10SM CLR 42/01 A2998 RMK AO2 SLP090 T04170011 56018
KTUS 101953Z 29009KT 10SM CLR 40/02 A2999 RMK AO2 SLP096 T04000017
KTUS 101853Z 34008KT 10SM CLR 39/02 A3002 RMK AO2 SLP104 T03940017
KTUS 101826Z 34010KT 10SM CLR 39/01 A3002 RMK AO2 T03890011
KTUS 101753Z 34005KT 10SM CLR 38/02 A3003 RMK AO2 SLP110 T03830022 10383 20250 58003